sensor_id;sensor_type;location;lat;lon;timestamp;temperature;humidity
15625;DHT22;7912;51.376;6.126;2023-11-22T00:00:46;8.60;99.90
15625;DHT22;7912;51.376;6.126;2023-11-22T00:03:14;8.60;99.90
15625;DHT22;7912;51.376;6.126;2023-11-22T00:05:44;8.50;99.90
15625;DHT22;7912;51.376;6.126;2023-11-22T00:08:12;8.50;99.90
15625;DHT22;7912;51.376;6.126;2023-11-22T00:10:39;8.40;99.90
15625;DHT22;7912;51.376;6.126;2023-11-22T00:13:09;8.40;99.90
15625;DHT22;7912;51.376;6.126;2023-11-22T00:15:40;8.30;99.90
15625;DHT22;7912;51.376;6.126;2023-11-22T00:18:07;8.30;99.90
15625;DHT22;7912;51.376;6.126;2023-11-22T00:20:35;8.30;99.90
15625;DHT22;7912;51.376;6.126;2023-11-22T00:23:03;8.20;99.90
15625;DHT22;7912;51.376;6.126;2023-11-22T00:25:30;8.20;99.90
15625;DHT22;7912;51.376;6.126;2023-11-22T00:27:59;8.10;99.90
15625;DHT22;7912;51.376;6.126;2023-11-22T00:30:27;8.10;99.90
15625;DHT22;7912;51.376;6.126;2023-11-22T00:32:54;8.10;99.90
15625;DHT22;7912;51.376;6.126;2023-11-22T00:35:21;8.10;99.90
15625;DHT22;7912;51.376;6.126;2023-11-22T00:37:52;8.00;99.90
15625;DHT22;7912;51.376;6.126;2023-11-22T00:40:19;7.90;99.90
15625;DHT22;7912;51.376;6.126;2023-11-22T00:42:47;7.90;99.90
15625;DHT22;7912;51.376;6.126;2023-11-22T00:45:15;7.90;99.90
15625;DHT22;7912;51.376;6.126;2023-11-22T00:47:42;7.90;99.90
15625;DHT22;7912;51.376;6.126;2023-11-22T00:50:09;7.80;99.90
15625;DHT22;7912;51.376;6.126;2023-11-22T00:52:37;7.80;99.90
15625;DHT22;7912;51.376;6.126;2023-11-22T00:55:04;7.80;99.90
15625;DHT22;7912;51.376;6.126;2023-11-22T00:57:32;7.80;99.90
15625;DHT22;7912;51.376;6.126;2023-11-22T00:59:59;7.70;99.90
15625;DHT22;7912;51.376;6.126;2023-11-22T01:02:26;7.70;99.90
15625;DHT22;7912;51.376;6.126;2023-11-22T01:04:54;7.70;99.90
15625;DHT22;7912;51.376;6.126;2023-11-22T01:07:21;7.60;99.90
15625;DHT22;7912;51.376;6.126;2023-11-22T01:09:48;7.60;99.90
15625;DHT22;7912;51.376;6.126;2023-11-22T01:12:15;7.60;99.90
15625;DHT22;7912;51.376;6.126;2023-11-22T01:14:43;7.60;99.90
15625;DHT22;7912;51.376;6.126;2023-11-22T01:17:10;7.50;99.90
15625;DHT22;7912;51.376;6.126;2023-11-22T01:19:37;7.50;99.90
15625;DHT22;7912;51.376;6.126;2023-11-22T01:22:04;7.50;99.90
15625;DHT22;7912;51.376;6.126;2023-11-22T01:24:32;7.40;99.90
15625;DHT22;7912;51.376;6.126;2023-11-22T01:27:00;7.40;99.90
15625;DHT22;7912;51.376;6.126;2023-11-22T01:29:27;7.40;99.90
15625;DHT22;7912;51.376;6.126;2023-11-22T01:31:55;7.40;99.90
15625;DHT22;7912;51.376;6.126;2023-11-22T01:34:28;7.40;99.90
15625;DHT22;7912;51.376;6.126;2023-11-22T01:36:56;7.30;99.90
15625;DHT22;7912;51.376;6.126;2023-11-22T01:39:23;7.30;99.90
15625;DHT22;7912;51.376;6.126;2023-11-22T01:41:54;7.30;99.90
15625;DHT22;7912;51.376;6.126;2023-11-22T01:44:22;7.30;99.90
15625;DHT22;7912;51.376;6.126;2023-11-22T01:47:10;7.30;99.90
15625;DHT22;7912;51.376;6.126;2023-11-22T01:49:37;7.30;99.90
15625;DHT22;7912;51.376;6.126;2023-11-22T01:52:07;7.30;99.90
15625;DHT22;7912;51.376;6.126;2023-11-22T01:54:38;7.30;99.90
15625;DHT22;7912;51.376;6.126;2023-11-22T01:57:05;7.30;99.90
15625;DHT22;7912;51.376;6.126;2023-11-22T01:59:35;7.30;99.90
15625;DHT22;7912;51.376;6.126;2023-11-22T02:02:04;7.30;99.90
15625;DHT22;7912;51.376;6.126;2023-11-22T02:04:32;7.30;99.90
15625;DHT22;7912;51.376;6.126;2023-11-22T02:06:59;7.30;99.90
15625;DHT22;7912;51.376;6.126;2023-11-22T02:09:26;7.30;99.90
15625;DHT22;7912;51.376;6.126;2023-11-22T02:11:54;7.30;99.90
15625;DHT22;7912;51.376;6.126;2023-11-22T02:14:21;7.30;99.90
15625;DHT22;7912;51.376;6.126;2023-11-22T02:16:48;7.30;99.90
15625;DHT22;7912;51.376;6.126;2023-11-22T02:19:17;7.30;99.90
15625;DHT22;7912;51.376;6.126;2023-11-22T02:21:44;7.30;99.90
15625;DHT22;7912;51.376;6.126;2023-11-22T02:24:15;7.30;99.90
15625;DHT22;7912;51.376;6.126;2023-11-22T02:26:45;7.30;99.90
15625;DHT22;7912;51.376;6.126;2023-11-22T02:29:15;7.30;99.90
15625;DHT22;7912;51.376;6.126;2023-11-22T02:31:43;7.30;99.90
15625;DHT22;7912;51.376;6.126;2023-11-22T02:34:10;7.30;99.90
15625;DHT22;7912;51.376;6.126;2023-11-22T02:36:37;7.30;99.90
15625;DHT22;7912;51.376;6.126;2023-11-22T02:39:05;7.20;99.90
15625;DHT22;7912;51.376;6.126;2023-11-22T02:41:33;7.30;99.90
15625;DHT22;7912;51.376;6.126;2023-11-22T02:44:02;7.30;99.90
15625;DHT22;7912;51.376;6.126;2023-11-22T02:46:29;7.20;99.90
15625;DHT22;7912;51.376;6.126;2023-11-22T02:48:58;7.20;99.90
15625;DHT22;7912;51.376;6.126;2023-11-22T02:51:26;7.20;99.90
15625;DHT22;7912;51.376;6.126;2023-11-22T02:53:54;7.20;99.90
15625;DHT22;7912;51.376;6.126;2023-11-22T02:56:21;7.20;99.90
15625;DHT22;7912;51.376;6.126;2023-11-22T02:58:48;7.20;99.90
15625;DHT22;7912;51.376;6.126;2023-11-22T03:01:15;7.20;99.90
15625;DHT22;7912;51.376;6.126;2023-11-22T03:03:43;7.20;99.90
15625;DHT22;7912;51.376;6.126;2023-11-22T03:06:10;7.20;99.90
15625;DHT22;7912;51.376;6.126;2023-11-22T03:08:37;7.20;99.90
15625;DHT22;7912;51.376;6.126;2023-11-22T03:11:08;7.20;99.90
15625;DHT22;7912;51.376;6.126;2023-11-22T03:13:37;7.20;99.90
15625;DHT22;7912;51.376;6.126;2023-11-22T03:16:05;7.20;99.90
15625;DHT22;7912;51.376;6.126;2023-11-22T03:18:32;7.20;99.90
15625;DHT22;7912;51.376;6.126;2023-11-22T03:20:59;7.20;99.90
15625;DHT22;7912;51.376;6.126;2023-11-22T03:23:29;7.20;99.90
15625;DHT22;7912;51.376;6.126;2023-11-22T03:25:58;7.20;99.90
15625;DHT22;7912;51.376;6.126;2023-11-22T03:28:25;7.30;99.90
15625;DHT22;7912;51.376;6.126;2023-11-22T03:30:52;7.30;99.90
15625;DHT22;7912;51.376;6.126;2023-11-22T03:33:20;7.30;99.90
15625;DHT22;7912;51.376;6.126;2023-11-22T03:35:47;7.30;99.90
15625;DHT22;7912;51.376;6.126;2023-11-22T03:38:14;7.40;99.90
15625;DHT22;7912;51.376;6.126;2023-11-22T03:40:42;7.40;99.90
15625;DHT22;7912;51.376;6.126;2023-11-22T03:43:09;7.40;99.90
15625;DHT22;7912;51.376;6.126;2023-11-22T03:45:37;7.40;99.90
15625;DHT22;7912;51.376;6.126;2023-11-22T03:48:07;7.40;99.90
15625;DHT22;7912;51.376;6.126;2023-11-22T03:50:34;7.40;99.90
15625;DHT22;7912;51.376;6.126;2023-11-22T03:53:02;7.50;99.90
15625;DHT22;7912;51.376;6.126;2023-11-22T03:55:29;7.50;99.90
15625;DHT22;7912;51.376;6.126;2023-11-22T03:57:56;7.50;99.90
15625;DHT22;7912;51.376;6.126;2023-11-22T04:00:23;7.50;99.90
15625;DHT22;7912;51.376;6.126;2023-11-22T04:02:51;7.50;99.90
15625;DHT22;7912;51.376;6.126;2023-11-22T04:05:18;7.50;99.90
15625;DHT22;7912;51.376;6.126;2023-11-22T04:07:47;7.50;99.90
15625;DHT22;7912;51.376;6.126;2023-11-22T04:10:14;7.50;99.90
15625;DHT22;7912;51.376;6.126;2023-11-22T04:12:41;7.60;99.90
15625;DHT22;7912;51.376;6.126;2023-11-22T04:15:09;7.60;99.90
15625;DHT22;7912;51.376;6.126;2023-11-22T04:17:37;7.60;99.90
15625;DHT22;7912;51.376;6.126;2023-11-22T04:20:07;7.50;99.90
15625;DHT22;7912;51.376;6.126;2023-11-22T04:22:37;7.60;99.90
15625;DHT22;7912;51.376;6.126;2023-11-22T04:25:04;7.60;99.90
15625;DHT22;7912;51.376;6.126;2023-11-22T04:27:33;7.50;99.90
15625;DHT22;7912;51.376;6.126;2023-11-22T04:30:00;7.50;99.90
15625;DHT22;7912;51.376;6.126;2023-11-22T04:32:27;7.50;99.90
15625;DHT22;7912;51.376;6.126;2023-11-22T04:34:55;7.50;99.90
15625;DHT22;7912;51.376;6.126;2023-11-22T04:37:23;7.50;99.90
15625;DHT22;7912;51.376;6.126;2023-11-22T04:39:53;7.50;99.90
15625;DHT22;7912;51.376;6.126;2023-11-22T04:42:20;7.50;99.90
15625;DHT22;7912;51.376;6.126;2023-11-22T04:44:49;7.50;99.90
15625;DHT22;7912;51.376;6.126;2023-11-22T04:47:16;7.50;99.90
15625;DHT22;7912;51.376;6.126;2023-11-22T04:49:44;7.50;99.90
15625;DHT22;7912;51.376;6.126;2023-11-22T04:52:11;7.40;99.90
15625;DHT22;7912;51.376;6.126;2023-11-22T04:54:39;7.40;99.90
15625;DHT22;7912;51.376;6.126;2023-11-22T04:57:06;7.40;99.90
15625;DHT22;7912;51.376;6.126;2023-11-22T04:59:33;7.40;99.90
15625;DHT22;7912;51.376;6.126;2023-11-22T05:02:01;7.40;99.90
15625;DHT22;7912;51.376;6.126;2023-11-22T05:04:28;7.40;99.90
15625;DHT22;7912;51.376;6.126;2023-11-22T05:06:56;7.40;99.90
15625;DHT22;7912;51.376;6.126;2023-11-22T05:09:23;7.40;99.90
15625;DHT22;7912;51.376;6.126;2023-11-22T05:11:50;7.40;99.90
15625;DHT22;7912;51.376;6.126;2023-11-22T05:14:19;7.40;99.90
15625;DHT22;7912;51.376;6.126;2023-11-22T05:16:46;7.40;99.90
15625;DHT22;7912;51.376;6.126;2023-11-22T05:19:13;7.40;99.90
15625;DHT22;7912;51.376;6.126;2023-11-22T05:21:40;7.40;99.90
15625;DHT22;7912;51.376;6.126;2023-11-22T05:24:07;7.40;99.90
15625;DHT22;7912;51.376;6.126;2023-11-22T05:26:35;7.30;99.90
15625;DHT22;7912;51.376;6.126;2023-11-22T05:29:03;7.30;99.90
15625;DHT22;7912;51.376;6.126;2023-11-22T05:31:32;7.30;99.90
15625;DHT22;7912;51.376;6.126;2023-11-22T05:33:59;7.20;99.90
15625;DHT22;7912;51.376;6.126;2023-11-22T05:36:26;7.20;99.90
15625;DHT22;7912;51.376;6.126;2023-11-22T05:38:53;7.10;99.90
15625;DHT22;7912;51.376;6.126;2023-11-22T05:41:21;7.10;99.90
15625;DHT22;7912;51.376;6.126;2023-11-22T05:43:48;7.10;99.90
15625;DHT22;7912;51.376;6.126;2023-11-22T05:46:15;7.00;99.90
15625;DHT22;7912;51.376;6.126;2023-11-22T05:48:48;7.00;99.90
15625;DHT22;7912;51.376;6.126;2023-11-22T05:51:19;7.00;99.90
15625;DHT22;7912;51.376;6.126;2023-11-22T05:53:46;7.00;99.90
15625;DHT22;7912;51.376;6.126;2023-11-22T05:56:14;7.00;99.90
15625;DHT22;7912;51.376;6.126;2023-11-22T05:58:41;6.90;99.90
15625;DHT22;7912;51.376;6.126;2023-11-22T06:01:10;6.90;99.90
15625;DHT22;7912;51.376;6.126;2023-11-22T06:03:40;6.90;99.90
15625;DHT22;7912;51.376;6.126;2023-11-22T06:06:08;6.90;99.90
15625;DHT22;7912;51.376;6.126;2023-11-22T06:08:35;6.90;99.90
15625;DHT22;7912;51.376;6.126;2023-11-22T06:11:03;6.90;99.90
15625;DHT22;7912;51.376;6.126;2023-11-22T06:13:30;6.90;99.90
15625;DHT22;7912;51.376;6.126;2023-11-22T06:15:58;6.90;99.90
15625;DHT22;7912;51.376;6.126;2023-11-22T06:18:26;6.90;99.90
15625;DHT22;7912;51.376;6.126;2023-11-22T06:20:56;6.90;99.90
15625;DHT22;7912;51.376;6.126;2023-11-22T06:23:24;6.90;99.90
15625;DHT22;7912;51.376;6.126;2023-11-22T06:25:51;6.90;99.90
15625;DHT22;7912;51.376;6.126;2023-11-22T06:28:19;6.90;99.90
15625;DHT22;7912;51.376;6.126;2023-11-22T06:30:46;6.90;99.90
15625;DHT22;7912;51.376;6.126;2023-11-22T06:33:13;6.80;99.90
15625;DHT22;7912;51.376;6.126;2023-11-22T06:35:41;6.80;99.90
15625;DHT22;7912;51.376;6.126;2023-11-22T06:38:09;6.80;99.90
15625;DHT22;7912;51.376;6.126;2023-11-22T06:40:36;6.80;99.90
15625;DHT22;7912;51.376;6.126;2023-11-22T06:43:04;6.80;99.90
15625;DHT22;7912;51.376;6.126;2023-11-22T06:45:31;6.80;99.90
15625;DHT22;7912;51.376;6.126;2023-11-22T06:47:59;6.80;99.90
15625;DHT22;7912;51.376;6.126;2023-11-22T06:50:27;6.80;99.90
15625;DHT22;7912;51.376;6.126;2023-11-22T06:52:55;6.70;99.90
15625;DHT22;7912;51.376;6.126;2023-11-22T06:55:22;6.70;99.90
15625;DHT22;7912;51.376;6.126;2023-11-22T06:57:49;6.70;99.90
15625;DHT22;7912;51.376;6.126;2023-11-22T07:00:17;6.70;99.90
15625;DHT22;7912;51.376;6.126;2023-11-22T07:02:45;6.70;99.90
15625;DHT22;7912;51.376;6.126;2023-11-22T07:05:12;6.70;99.90
15625;DHT22;7912;51.376;6.126;2023-11-22T07:07:41;6.70;99.90
15625;DHT22;7912;51.376;6.126;2023-11-22T07:10:08;6.70;99.90
15625;DHT22;7912;51.376;6.126;2023-11-22T07:12:38;6.70;99.90
15625;DHT22;7912;51.376;6.126;2023-11-22T07:15:07;6.70;99.90
15625;DHT22;7912;51.376;6.126;2023-11-22T07:17:36;6.70;99.90
15625;DHT22;7912;51.376;6.126;2023-11-22T07:20:04;6.70;99.90
15625;DHT22;7912;51.376;6.126;2023-11-22T07:22:36;6.70;99.90
15625;DHT22;7912;51.376;6.126;2023-11-22T07:25:04;6.70;99.90
15625;DHT22;7912;51.376;6.126;2023-11-22T07:27:33;6.70;99.90
15625;DHT22;7912;51.376;6.126;2023-11-22T07:30:01;6.70;99.90
15625;DHT22;7912;51.376;6.126;2023-11-22T07:32:28;6.70;99.90
15625;DHT22;7912;51.376;6.126;2023-11-22T07:34:57;6.70;99.90
15625;DHT22;7912;51.376;6.126;2023-11-22T07:37:24;6.70;99.90
15625;DHT22;7912;51.376;6.126;2023-11-22T07:39:51;6.70;99.90
15625;DHT22;7912;51.376;6.126;2023-11-22T07:42:20;6.70;99.90
15625;DHT22;7912;51.376;6.126;2023-11-22T07:44:49;6.80;99.90
15625;DHT22;7912;51.376;6.126;2023-11-22T07:47:23;6.80;99.90
15625;DHT22;7912;51.376;6.126;2023-11-22T07:49:51;6.90;99.90
15625;DHT22;7912;51.376;6.126;2023-11-22T07:52:19;6.90;99.90
15625;DHT22;7912;51.376;6.126;2023-11-22T07:54:46;7.00;99.90
15625;DHT22;7912;51.376;6.126;2023-11-22T07:57:13;7.10;99.90
15625;DHT22;7912;51.376;6.126;2023-11-22T07:59:41;7.10;99.90
15625;DHT22;7912;51.376;6.126;2023-11-22T08:02:08;7.10;99.90
15625;DHT22;7912;51.376;6.126;2023-11-22T08:04:38;7.20;99.90
15625;DHT22;7912;51.376;6.126;2023-11-22T08:07:07;7.20;99.90
15625;DHT22;7912;51.376;6.126;2023-11-22T08:09:34;7.20;99.90
15625;DHT22;7912;51.376;6.126;2023-11-22T08:12:02;7.30;99.90
15625;DHT22;7912;51.376;6.126;2023-11-22T08:14:36;7.30;99.90
15625;DHT22;7912;51.376;6.126;2023-11-22T08:17:04;7.30;99.90
15625;DHT22;7912;51.376;6.126;2023-11-22T08:19:33;7.30;99.90
15625;DHT22;7912;51.376;6.126;2023-11-22T08:22:00;7.30;99.90
15625;DHT22;7912;51.376;6.126;2023-11-22T08:24:27;7.30;99.90
15625;DHT22;7912;51.376;6.126;2023-11-22T08:26:55;7.30;99.90
15625;DHT22;7912;51.376;6.126;2023-11-22T08:29:24;7.30;99.90
15625;DHT22;7912;51.376;6.126;2023-11-22T08:31:51;7.30;99.90
15625;DHT22;7912;51.376;6.126;2023-11-22T08:34:19;7.30;99.90
15625;DHT22;7912;51.376;6.126;2023-11-22T08:36:47;7.30;99.90
15625;DHT22;7912;51.376;6.126;2023-11-22T08:39:14;7.30;99.90
15625;DHT22;7912;51.376;6.126;2023-11-22T08:41:41;7.30;99.90
15625;DHT22;7912;51.376;6.126;2023-11-22T08:44:09;7.30;99.90
15625;DHT22;7912;51.376;6.126;2023-11-22T08:46:36;7.40;99.90
15625;DHT22;7912;51.376;6.126;2023-11-22T08:49:04;7.40;99.90
15625;DHT22;7912;51.376;6.126;2023-11-22T08:51:31;7.50;99.90
15625;DHT22;7912;51.376;6.126;2023-11-22T08:54:00;7.50;99.90
15625;DHT22;7912;51.376;6.126;2023-11-22T08:56:28;7.60;99.90
15625;DHT22;7912;51.376;6.126;2023-11-22T08:58:55;7.60;99.90
15625;DHT22;7912;51.376;6.126;2023-11-22T09:01:22;7.70;99.90
15625;DHT22;7912;51.376;6.126;2023-11-22T09:03:50;7.80;99.90
15625;DHT22;7912;51.376;6.126;2023-11-22T09:06:17;7.80;99.90
15625;DHT22;7912;51.376;6.126;2023-11-22T09:08:45;7.90;99.90
15625;DHT22;7912;51.376;6.126;2023-11-22T09:11:15;7.90;99.90
15625;DHT22;7912;51.376;6.126;2023-11-22T09:13:44;8.00;99.90
15625;DHT22;7912;51.376;6.126;2023-11-22T09:16:11;8.00;99.90
15625;DHT22;7912;51.376;6.126;2023-11-22T09:18:39;8.10;99.90
15625;DHT22;7912;51.376;6.126;2023-11-22T09:21:07;8.10;99.90
15625;DHT22;7912;51.376;6.126;2023-11-22T09:23:36;8.10;99.90
15625;DHT22;7912;51.376;6.126;2023-11-22T09:26:04;8.20;99.90
15625;DHT22;7912;51.376;6.126;2023-11-22T09:28:32;8.20;99.90
15625;DHT22;7912;51.376;6.126;2023-11-22T09:30:59;8.30;99.90
15625;DHT22;7912;51.376;6.126;2023-11-22T09:33:33;8.30;99.90
15625;DHT22;7912;51.376;6.126;2023-11-22T09:36:00;8.40;99.90
15625;DHT22;7912;51.376;6.126;2023-11-22T09:38:35;8.40;99.90
15625;DHT22;7912;51.376;6.126;2023-11-22T09:41:05;8.50;99.90
15625;DHT22;7912;51.376;6.126;2023-11-22T09:43:35;8.60;99.90
15625;DHT22;7912;51.376;6.126;2023-11-22T09:46:03;8.70;99.90
15625;DHT22;7912;51.376;6.126;2023-11-22T09:48:31;8.70;99.90
15625;DHT22;7912;51.376;6.126;2023-11-22T09:56:20;9.00;99.90
15625;DHT22;7912;51.376;6.126;2023-11-22T09:58:50;9.10;99.90
15625;DHT22;7912;51.376;6.126;2023-11-22T10:01:23;9.20;99.90
15625;DHT22;7912;51.376;6.126;2023-11-22T10:03:51;9.20;99.90
15625;DHT22;7912;51.376;6.126;2023-11-22T10:06:19;9.30;99.90
15625;DHT22;7912;51.376;6.126;2023-11-22T10:08:49;9.30;99.90
15625;DHT22;7912;51.376;6.126;2023-11-22T10:11:18;9.40;99.90
15625;DHT22;7912;51.376;6.126;2023-11-22T10:13:51;9.40;99.90
15625;DHT22;7912;51.376;6.126;2023-11-22T10:16:19;9.50;99.90
15625;DHT22;7912;51.376;6.126;2023-11-22T10:18:48;9.50;99.90
15625;DHT22;7912;51.376;6.126;2023-11-22T10:24:03;9.60;99.90
15625;DHT22;7912;51.376;6.126;2023-11-22T10:26:31;9.70;99.90
15625;DHT22;7912;51.376;6.126;2023-11-22T10:28:59;9.80;99.90
15625;DHT22;7912;51.376;6.126;2023-11-22T10:31:26;9.80;99.90
15625;DHT22;7912;51.376;6.126;2023-11-22T10:33:55;9.90;99.90
15625;DHT22;7912;51.376;6.126;2023-11-22T10:36:25;10.10;99.90
15625;DHT22;7912;51.376;6.126;2023-11-22T10:38:54;10.10;99.90
15625;DHT22;7912;51.376;6.126;2023-11-22T10:41:22;10.30;99.90
15625;DHT22;7912;51.376;6.126;2023-11-22T10:43:52;10.40;99.90
15625;DHT22;7912;51.376;6.126;2023-11-22T10:46:30;10.60;99.90
15625;DHT22;7912;51.376;6.126;2023-11-22T10:48:58;10.70;99.90
15625;DHT22;7912;51.376;6.126;2023-11-22T10:51:30;10.80;99.90
15625;DHT22;7912;51.376;6.126;2023-11-22T10:54:01;10.90;99.90
15625;DHT22;7912;51.376;6.126;2023-11-22T10:56:39;11.00;99.90
15625;DHT22;7912;51.376;6.126;2023-11-22T10:59:13;11.10;99.90
15625;DHT22;7912;51.376;6.126;2023-11-22T11:01:47;11.10;99.90
15625;DHT22;7912;51.376;6.126;2023-11-22T11:04:24;11.10;99.90
15625;DHT22;7912;51.376;6.126;2023-11-22T11:06:57;11.20;99.90
15625;DHT22;7912;51.376;6.126;2023-11-22T11:09:27;11.30;99.90
15625;DHT22;7912;51.376;6.126;2023-11-22T11:12:00;11.30;99.90
15625;DHT22;7912;51.376;6.126;2023-11-22T11:14:34;11.40;99.90
15625;DHT22;7912;51.376;6.126;2023-11-22T11:17:06;11.50;99.90
15625;DHT22;7912;51.376;6.126;2023-11-22T11:19:34;11.50;99.90
15625;DHT22;7912;51.376;6.126;2023-11-22T11:22:03;11.70;99.90
15625;DHT22;7912;51.376;6.126;2023-11-22T11:24:40;11.70;99.90
15625;DHT22;7912;51.376;6.126;2023-11-22T11:27:11;11.80;99.90
15625;DHT22;7912;51.376;6.126;2023-11-22T11:29:39;11.90;99.90
15625;DHT22;7912;51.376;6.126;2023-11-22T11:32:11;12.00;99.90
15625;DHT22;7912;51.376;6.126;2023-11-22T11:34:48;12.00;99.90
15625;DHT22;7912;51.376;6.126;2023-11-22T11:37:20;12.10;99.90
15625;DHT22;7912;51.376;6.126;2023-11-22T11:39:47;12.10;99.90
15625;DHT22;7912;51.376;6.126;2023-11-22T11:42:15;12.10;99.90
15625;DHT22;7912;51.376;6.126;2023-11-22T11:45:05;12.00;99.90
15625;DHT22;7912;51.376;6.126;2023-11-22T11:47:34;12.00;99.90
15625;DHT22;7912;51.376;6.126;2023-11-22T11:50:02;12.00;99.90
15625;DHT22;7912;51.376;6.126;2023-11-22T11:52:29;11.90;99.90
15625;DHT22;7912;51.376;6.126;2023-11-22T11:54:58;11.90;99.90
15625;DHT22;7912;51.376;6.126;2023-11-22T11:57:31;11.90;99.90
15625;DHT22;7912;51.376;6.126;2023-11-22T11:59:59;11.90;99.90
15625;DHT22;7912;51.376;6.126;2023-11-22T12:02:27;11.90;99.90
15625;DHT22;7912;51.376;6.126;2023-11-22T12:04:54;11.90;99.90
15625;DHT22;7912;51.376;6.126;2023-11-22T12:07:21;11.90;99.90
15625;DHT22;7912;51.376;6.126;2023-11-22T12:09:49;11.90;99.90
15625;DHT22;7912;51.376;6.126;2023-11-22T12:12:16;11.90;99.90
15625;DHT22;7912;51.376;6.126;2023-11-22T12:14:44;11.90;99.90
15625;DHT22;7912;51.376;6.126;2023-11-22T12:17:11;11.80;99.90
15625;DHT22;7912;51.376;6.126;2023-11-22T12:19:43;11.80;99.90
15625;DHT22;7912;51.376;6.126;2023-11-22T12:22:10;11.70;99.90
15625;DHT22;7912;51.376;6.126;2023-11-22T12:24:39;11.60;99.90
15625;DHT22;7912;51.376;6.126;2023-11-22T12:27:09;11.50;99.90
15625;DHT22;7912;51.376;6.126;2023-11-22T12:29:37;11.40;99.90
15625;DHT22;7912;51.376;6.126;2023-11-22T12:32:06;11.30;99.90
15625;DHT22;7912;51.376;6.126;2023-11-22T12:34:33;11.20;99.90
15625;DHT22;7912;51.376;6.126;2023-11-22T12:37:01;11.20;99.90
15625;DHT22;7912;51.376;6.126;2023-11-22T12:39:28;11.10;99.90
15625;DHT22;7912;51.376;6.126;2023-11-22T12:41:56;11.10;99.90
15625;DHT22;7912;51.376;6.126;2023-11-22T12:44:52;11.10;99.90
15625;DHT22;7912;51.376;6.126;2023-11-22T12:47:33;11.10;99.90
15625;DHT22;7912;51.376;6.126;2023-11-22T12:50:03;11.10;99.90
15625;DHT22;7912;51.376;6.126;2023-11-22T12:52:34;11.20;99.90
15625;DHT22;7912;51.376;6.126;2023-11-22T12:55:01;11.20;99.90
15625;DHT22;7912;51.376;6.126;2023-11-22T12:57:31;11.20;99.90
15625;DHT22;7912;51.376;6.126;2023-11-22T12:59:59;11.30;99.90
15625;DHT22;7912;51.376;6.126;2023-11-22T13:02:26;11.40;99.90
15625;DHT22;7912;51.376;6.126;2023-11-22T13:04:56;11.40;99.90
15625;DHT22;7912;51.376;6.126;2023-11-22T13:07:23;11.50;99.90
15625;DHT22;7912;51.376;6.126;2023-11-22T13:09:53;11.60;99.90
15625;DHT22;7912;51.376;6.126;2023-11-22T13:12:21;11.60;99.90
15625;DHT22;7912;51.376;6.126;2023-11-22T13:14:48;11.70;99.90
15625;DHT22;7912;51.376;6.126;2023-11-22T13:17:17;11.80;99.90
15625;DHT22;7912;51.376;6.126;2023-11-22T13:19:45;11.90;99.90
15625;DHT22;7912;51.376;6.126;2023-11-22T13:22:14;12.00;99.90
15625;DHT22;7912;51.376;6.126;2023-11-22T13:24:42;12.20;99.90
15625;DHT22;7912;51.376;6.126;2023-11-22T13:27:10;12.30;99.90
15625;DHT22;7912;51.376;6.126;2023-11-22T13:29:37;12.50;99.90
15625;DHT22;7912;51.376;6.126;2023-11-22T13:32:04;12.70;99.90
15625;DHT22;7912;51.376;6.126;2023-11-22T13:34:34;12.80;99.90
15625;DHT22;7912;51.376;6.126;2023-11-22T13:37:02;12.90;99.90
15625;DHT22;7912;51.376;6.126;2023-11-22T13:39:29;12.90;99.90
15625;DHT22;7912;51.376;6.126;2023-11-22T13:42:00;13.00;99.90
15625;DHT22;7912;51.376;6.126;2023-11-22T13:44:27;13.00;99.90
15625;DHT22;7912;51.376;6.126;2023-11-22T13:46:55;13.00;99.90
15625;DHT22;7912;51.376;6.126;2023-11-22T13:49:24;13.00;99.90
15625;DHT22;7912;51.376;6.126;2023-11-22T13:51:51;13.00;99.90
15625;DHT22;7912;51.376;6.126;2023-11-22T13:54:18;12.90;99.90
15625;DHT22;7912;51.376;6.126;2023-11-22T13:56:46;12.80;99.90
15625;DHT22;7912;51.376;6.126;2023-11-22T13:59:13;12.70;99.90
15625;DHT22;7912;51.376;6.126;2023-11-22T14:01:40;12.60;99.90
15625;DHT22;7912;51.376;6.126;2023-11-22T14:04:09;12.50;99.90
15625;DHT22;7912;51.376;6.126;2023-11-22T14:06:36;12.40;99.90
15625;DHT22;7912;51.376;6.126;2023-11-22T14:09:04;12.40;99.90
15625;DHT22;7912;51.376;6.126;2023-11-22T14:11:31;12.30;99.90
15625;DHT22;7912;51.376;6.126;2023-11-22T14:14:00;12.30;99.90
15625;DHT22;7912;51.376;6.126;2023-11-22T14:16:29;12.20;99.90
15625;DHT22;7912;51.376;6.126;2023-11-22T14:19:00;12.10;99.90
15625;DHT22;7912;51.376;6.126;2023-11-22T14:21:28;12.00;99.90
15625;DHT22;7912;51.376;6.126;2023-11-22T14:23:57;11.90;99.90
15625;DHT22;7912;51.376;6.126;2023-11-22T14:26:24;11.80;99.90
15625;DHT22;7912;51.376;6.126;2023-11-22T14:28:52;11.70;99.90
15625;DHT22;7912;51.376;6.126;2023-11-22T14:31:20;11.60;99.90
15625;DHT22;7912;51.376;6.126;2023-11-22T14:33:47;11.50;99.90
15625;DHT22;7912;51.376;6.126;2023-11-22T14:36:14;11.40;99.90
15625;DHT22;7912;51.376;6.126;2023-11-22T14:38:42;11.40;99.90
15625;DHT22;7912;51.376;6.126;2023-11-22T14:41:09;11.30;99.90
15625;DHT22;7912;51.376;6.126;2023-11-22T14:43:39;11.20;99.90
15625;DHT22;7912;51.376;6.126;2023-11-22T14:46:06;11.10;99.90
15625;DHT22;7912;51.376;6.126;2023-11-22T14:48:34;11.10;99.90
15625;DHT22;7912;51.376;6.126;2023-11-22T14:51:05;11.00;99.90
15625;DHT22;7912;51.376;6.126;2023-11-22T14:53:33;11.00;99.90
15625;DHT22;7912;51.376;6.126;2023-11-22T14:56:02;10.90;99.90
15625;DHT22;7912;51.376;6.126;2023-11-22T14:58:30;10.80;99.90
15625;DHT22;7912;51.376;6.126;2023-11-22T15:00:57;10.80;99.90
15625;DHT22;7912;51.376;6.126;2023-11-22T15:03:24;10.70;99.90
15625;DHT22;7912;51.376;6.126;2023-11-22T15:05:54;10.70;99.90
15625;DHT22;7912;51.376;6.126;2023-11-22T15:08:21;10.60;99.90
15625;DHT22;7912;51.376;6.126;2023-11-22T15:10:51;10.60;99.90
15625;DHT22;7912;51.376;6.126;2023-11-22T15:13:18;10.60;99.90
15625;DHT22;7912;51.376;6.126;2023-11-22T15:15:45;10.50;99.90
15625;DHT22;7912;51.376;6.126;2023-11-22T15:18:13;10.50;99.90
15625;DHT22;7912;51.376;6.126;2023-11-22T15:20:41;10.40;99.90
15625;DHT22;7912;51.376;6.126;2023-11-22T15:23:09;10.40;99.90
15625;DHT22;7912;51.376;6.126;2023-11-22T15:25:41;10.40;99.90
15625;DHT22;7912;51.376;6.126;2023-11-22T15:28:09;10.40;99.90
15625;DHT22;7912;51.376;6.126;2023-11-22T15:30:36;10.30;99.90
15625;DHT22;7912;51.376;6.126;2023-11-22T15:33:04;10.30;99.90
15625;DHT22;7912;51.376;6.126;2023-11-22T15:35:32;10.30;99.90
15625;DHT22;7912;51.376;6.126;2023-11-22T15:37:59;10.30;99.90
15625;DHT22;7912;51.376;6.126;2023-11-22T15:40:26;10.30;99.90
15625;DHT22;7912;51.376;6.126;2023-11-22T15:42:53;10.30;99.90
15625;DHT22;7912;51.376;6.126;2023-11-22T15:45:21;10.20;99.90
15625;DHT22;7912;51.376;6.126;2023-11-22T15:47:48;10.20;99.90
15625;DHT22;7912;51.376;6.126;2023-11-22T15:50:16;10.20;99.90
15625;DHT22;7912;51.376;6.126;2023-11-22T15:52:43;10.20;99.90
15625;DHT22;7912;51.376;6.126;2023-11-22T15:55:10;10.20;99.90
15625;DHT22;7912;51.376;6.126;2023-11-22T15:57:38;10.20;99.90
15625;DHT22;7912;51.376;6.126;2023-11-22T16:00:06;10.10;99.90
15625;DHT22;7912;51.376;6.126;2023-11-22T16:02:37;10.10;99.90
15625;DHT22;7912;51.376;6.126;2023-11-22T16:05:05;10.10;99.90
15625;DHT22;7912;51.376;6.126;2023-11-22T16:07:37;10.10;99.90
15625;DHT22;7912;51.376;6.126;2023-11-22T16:10:04;10.00;99.90
15625;DHT22;7912;51.376;6.126;2023-11-22T16:12:35;10.00;99.90